This is the latest recevied weather packets stored in our database for station/object N4OGP-WX. If no packets are shown the sender has not sent any weather packets the latest 1 day(s).
| Time | Temp. | Humidity | Pressure | Rain* | Wind** | Luminosity | Snow |
|---|---|---|---|---|---|---|---|
| 1778032257 | 22.22° C | 84% | 1011.4 hPa | 0 mm | - | - | - |
| 1778032107 | 23.89° C | 42% | 1020.4 hPa | 0 mm | - | - | - |
| 1778031956 | 23.89° C | 42% | 1020.4 hPa | 0 mm | - | - | - |
| 1778031687 | 22.22° C | 84% | 1011.5 hPa | 0 mm | - | - | - |
| 1778031627 | 22.22° C | 84% | 1011.5 hPa | 0 mm | - | - | - |
| 1778031567 | 23.89° C | 42% | 1020.4 hPa | 0 mm | - | - | - |
| 1778031477 | 22.22° C | 84% | 1011.5 hPa | 0 mm | - | - | - |
| 1778031416 | 23.89° C | 42% | 1020.4 hPa | 0 mm | - | - | - |
| 1778031356 | 22.22° C | 84% | 1011.4 hPa | 0 mm | - | - | - |
| 1778031267 | 22.22° C | 84% | 1011.4 hPa | 0 mm | - | - | - |
| 1778031207 | 23.89° C | 42% | 1020.4 hPa | 0 mm | - | - | - |
| 1778031027 | 22.22° C | 83% | 1011.3 hPa | 0 mm | - | - | - |
| 1778030906 | 23.89° C | 42% | 1020.4 hPa | 0 mm | - | - | - |
| 1778030847 | 22.22° C | 83% | 1011.3 hPa | 0 mm | - | - | - |
| 1778030756 | 22.22° C | 83% | 1011.3 hPa | 0 mm | - | - | - |
| 1778030637 | 23.89° C | 42% | 1020.4 hPa | 0 mm | - | - | - |
| 1778030486 | 22.22° C | 83% | 1011.3 hPa | 0 mm | - | - | - |
| 1778030366 | 22.22° C | 83% | 1011.4 hPa | 0 mm | - | - | - |
| 1778030307 | 23.89° C | 42% | 1020.4 hPa | 0 mm | - | - | - |
| 1778030217 | 22.22° C | 83% | 1011.4 hPa | 0 mm | - | - | - |
| 1778030127 | 22.22° C | 83% | 1011.3 hPa | 0 mm | - | - | - |
| 1778030067 | 23.89° C | 42% | 1020.4 hPa | 0 mm | - | - | - |
| 1778030006 | 23.89° C | 42% | 1020.4 hPa | 0 mm | - | - | - |
| 1778029947 | 23.89° C | 42% | 1020.4 hPa | 0 mm | - | - | - |
| 1778029827 | 22.22° C | 82% | 1011.3 hPa | 0 mm | - | - | - |
* Rain latest hour (hover to see other rain measurements)
** Current wind speed in m/s (hover to see current wind gust speed)